sensor_id;sensor_type;location;lat;lon;timestamp;pressure;altitude;pressure_sealevel;temperature
25514;BMP180;48128;54.242;10.280;2022-09-01T00:01:47;102113.00;;;10.40
25514;BMP180;48128;54.242;10.280;2022-09-01T00:04:17;102108.00;;;10.40
25514;BMP180;48128;54.242;10.280;2022-09-01T00:06:46;102106.00;;;10.30
25514;BMP180;48128;54.242;10.280;2022-09-01T00:09:16;102115.00;;;10.30
25514;BMP180;48128;54.242;10.280;2022-09-01T00:11:47;102109.00;;;10.30
25514;BMP180;48128;54.242;10.280;2022-09-01T00:14:20;102117.00;;;10.20
25514;BMP180;48128;54.242;10.280;2022-09-01T00:16:57;102108.00;;;10.20
25514;BMP180;48128;54.242;10.280;2022-09-01T00:19:25;102103.00;;;10.20
25514;BMP180;48128;54.242;10.280;2022-09-01T00:21:51;102105.00;;;10.20
25514;BMP180;48128;54.242;10.280;2022-09-01T00:24:18;102100.00;;;10.10
25514;BMP180;48128;54.242;10.280;2022-09-01T00:26:46;102100.00;;;10.10
25514;BMP180;48128;54.242;10.280;2022-09-01T00:29:13;102102.00;;;10.10
25514;BMP180;48128;54.242;10.280;2022-09-01T00:31:41;102109.00;;;10.10
25514;BMP180;48128;54.242;10.280;2022-09-01T00:34:08;102112.00;;;10.10
25514;BMP180;48128;54.242;10.280;2022-09-01T00:36:35;102098.00;;;10.10
25514;BMP180;48128;54.242;10.280;2022-09-01T00:39:02;102090.00;;;10.10
25514;BMP180;48128;54.242;10.280;2022-09-01T00:41:31;102102.00;;;10.00
25514;BMP180;48128;54.242;10.280;2022-09-01T00:44:04;102098.00;;;10.00
25514;BMP180;48128;54.242;10.280;2022-09-01T00:46:34;102103.00;;;10.00
25514;BMP180;48128;54.242;10.280;2022-09-01T00:49:16;102094.00;;;10.00
25514;BMP180;48128;54.242;10.280;2022-09-01T00:51:46;102089.00;;;10.00
25514;BMP180;48128;54.242;10.280;2022-09-01T00:54:17;102096.00;;;10.00
25514;BMP180;48128;54.242;10.280;2022-09-01T00:56:45;102096.00;;;10.00
25514;BMP180;48128;54.242;10.280;2022-09-01T00:59:21;102097.00;;;10.00
25514;BMP180;48128;54.242;10.280;2022-09-01T01:01:49;102095.00;;;10.00
25514;BMP180;48128;54.242;10.280;2022-09-01T01:04:16;102092.00;;;10.00
25514;BMP180;48128;54.242;10.280;2022-09-01T01:06:54;102093.00;;;9.90
25514;BMP180;48128;54.242;10.280;2022-09-01T01:09:39;102095.00;;;9.90
25514;BMP180;48128;54.242;10.280;2022-09-01T01:12:07;102088.00;;;9.90
25514;BMP180;48128;54.242;10.280;2022-09-01T01:14:37;102099.00;;;9.90
25514;BMP180;48128;54.242;10.280;2022-09-01T01:17:05;102098.00;;;9.90
25514;BMP180;48128;54.242;10.280;2022-09-01T01:25:24;102084.00;;;9.80
25514;BMP180;48128;54.242;10.280;2022-09-01T01:27:51;102080.00;;;9.80
25514;BMP180;48128;54.242;10.280;2022-09-01T01:30:29;102077.00;;;9.80
25514;BMP180;48128;54.242;10.280;2022-09-01T01:32:58;102084.00;;;9.70
25514;BMP180;48128;54.242;10.280;2022-09-01T01:35:25;102094.00;;;9.70
25514;BMP180;48128;54.242;10.280;2022-09-01T01:37:52;102090.00;;;9.70
25514;BMP180;48128;54.242;10.280;2022-09-01T01:40:20;102083.00;;;9.70
25514;BMP180;48128;54.242;10.280;2022-09-01T01:42:50;102079.00;;;9.70
25514;BMP180;48128;54.242;10.280;2022-09-01T01:45:21;102081.00;;;9.60
25514;BMP180;48128;54.242;10.280;2022-09-01T01:47:50;102070.00;;;9.60
25514;BMP180;48128;54.242;10.280;2022-09-01T01:50:21;102082.00;;;9.60
25514;BMP180;48128;54.242;10.280;2022-09-01T01:52:49;102081.00;;;9.60
25514;BMP180;48128;54.242;10.280;2022-09-01T01:55:24;102069.00;;;9.50
25514;BMP180;48128;54.242;10.280;2022-09-01T01:57:54;102078.00;;;9.50
25514;BMP180;48128;54.242;10.280;2022-09-01T02:00:29;102077.00;;;9.60
25514;BMP180;48128;54.242;10.280;2022-09-01T02:02:57;102073.00;;;9.50
25514;BMP180;48128;54.242;10.280;2022-09-01T02:05:29;102080.00;;;9.50
25514;BMP180;48128;54.242;10.280;2022-09-01T02:08:05;102076.00;;;9.50
25514;BMP180;48128;54.242;10.280;2022-09-01T02:10:39;102086.00;;;9.50
25514;BMP180;48128;54.242;10.280;2022-09-01T02:13:09;102087.00;;;9.50
25514;BMP180;48128;54.242;10.280;2022-09-01T02:15:47;102083.00;;;9.40
25514;BMP180;48128;54.242;10.280;2022-09-01T02:20:48;102079.00;;;9.40
25514;BMP180;48128;54.242;10.280;2022-09-01T02:23:17;102081.00;;;9.40
25514;BMP180;48128;54.242;10.280;2022-09-01T02:25:57;102081.00;;;9.40
25514;BMP180;48128;54.242;10.280;2022-09-01T02:28:45;102080.00;;;9.40
25514;BMP180;48128;54.242;10.280;2022-09-01T02:31:21;102086.00;;;9.40
25514;BMP180;48128;54.242;10.280;2022-09-01T02:33:48;102078.00;;;9.40
25514;BMP180;48128;54.242;10.280;2022-09-01T02:36:16;102081.00;;;9.40
25514;BMP180;48128;54.242;10.280;2022-09-01T02:38:46;102067.00;;;9.40
25514;BMP180;48128;54.242;10.280;2022-09-01T02:41:21;102072.00;;;9.40
25514;BMP180;48128;54.242;10.280;2022-09-01T02:43:49;102076.00;;;9.40
25514;BMP180;48128;54.242;10.280;2022-09-01T02:46:16;102072.00;;;9.40
25514;BMP180;48128;54.242;10.280;2022-09-01T02:48:44;102068.00;;;9.40
25514;BMP180;48128;54.242;10.280;2022-09-01T02:51:15;102064.00;;;9.40
25514;BMP180;48128;54.242;10.280;2022-09-01T02:53:44;102073.00;;;9.30
25514;BMP180;48128;54.242;10.280;2022-09-01T02:56:12;102069.00;;;9.30
25514;BMP180;48128;54.242;10.280;2022-09-01T02:58:44;102077.00;;;9.30
25514;BMP180;48128;54.242;10.280;2022-09-01T03:01:23;102064.00;;;9.30
25514;BMP180;48128;54.242;10.280;2022-09-01T03:03:53;102064.00;;;9.30
25514;BMP180;48128;54.242;10.280;2022-09-01T03:06:21;102062.00;;;9.30
25514;BMP180;48128;54.242;10.280;2022-09-01T03:08:55;102061.00;;;9.30
25514;BMP180;48128;54.242;10.280;2022-09-01T03:11:22;102059.00;;;9.20
25514;BMP180;48128;54.242;10.280;2022-09-01T03:13:50;102062.00;;;9.20
25514;BMP180;48128;54.242;10.280;2022-09-01T03:16:17;102072.00;;;9.20
25514;BMP180;48128;54.242;10.280;2022-09-01T03:18:44;102063.00;;;9.20
25514;BMP180;48128;54.242;10.280;2022-09-01T03:21:11;102057.00;;;9.20
25514;BMP180;48128;54.242;10.280;2022-09-01T03:23:43;102059.00;;;9.20
25514;BMP180;48128;54.242;10.280;2022-09-01T03:26:11;102065.00;;;9.20
25514;BMP180;48128;54.242;10.280;2022-09-01T03:28:39;102057.00;;;9.20
25514;BMP180;48128;54.242;10.280;2022-09-01T03:31:06;102075.00;;;9.20
25514;BMP180;48128;54.242;10.280;2022-09-01T03:33:34;102077.00;;;9.20
25514;BMP180;48128;54.242;10.280;2022-09-01T03:36:03;102073.00;;;9.20
25514;BMP180;48128;54.242;10.280;2022-09-01T03:38:30;102068.00;;;9.20
25514;BMP180;48128;54.242;10.280;2022-09-01T03:41:01;102071.00;;;9.10
25514;BMP180;48128;54.242;10.280;2022-09-01T03:43:30;102073.00;;;9.10
25514;BMP180;48128;54.242;10.280;2022-09-01T03:46:02;102083.00;;;9.10
25514;BMP180;48128;54.242;10.280;2022-09-01T03:48:29;102071.00;;;9.00
25514;BMP180;48128;54.242;10.280;2022-09-01T03:50:58;102081.00;;;9.00
25514;BMP180;48128;54.242;10.280;2022-09-01T03:53:32;102075.00;;;9.00
25514;BMP180;48128;54.242;10.280;2022-09-01T03:56:03;102068.00;;;9.00
25514;BMP180;48128;54.242;10.280;2022-09-01T03:58:30;102072.00;;;9.00
25514;BMP180;48128;54.242;10.280;2022-09-01T04:00:58;102072.00;;;9.00
25514;BMP180;48128;54.242;10.280;2022-09-01T04:03:31;102073.00;;;9.00
25514;BMP180;48128;54.242;10.280;2022-09-01T04:06:01;102067.00;;;9.00
25514;BMP180;48128;54.242;10.280;2022-09-01T04:08:29;102079.00;;;9.00
25514;BMP180;48128;54.242;10.280;2022-09-01T04:11:00;102086.00;;;9.00
25514;BMP180;48128;54.242;10.280;2022-09-01T04:13:30;102076.00;;;9.00
25514;BMP180;48128;54.242;10.280;2022-09-01T04:15:59;102086.00;;;8.90
25514;BMP180;48128;54.242;10.280;2022-09-01T04:18:26;102077.00;;;8.90
25514;BMP180;48128;54.242;10.280;2022-09-01T04:20:55;102086.00;;;8.90
25514;BMP180;48128;54.242;10.280;2022-09-01T04:23:25;102077.00;;;9.00
25514;BMP180;48128;54.242;10.280;2022-09-01T04:25:56;102081.00;;;9.00
25514;BMP180;48128;54.242;10.280;2022-09-01T04:28:29;102081.00;;;9.00
25514;BMP180;48128;54.242;10.280;2022-09-01T04:30:56;102087.00;;;9.00
25514;BMP180;48128;54.242;10.280;2022-09-01T04:33:25;102085.00;;;8.90
25514;BMP180;48128;54.242;10.280;2022-09-01T04:35:53;102088.00;;;8.90
25514;BMP180;48128;54.242;10.280;2022-09-01T04:38:23;102093.00;;;8.90
25514;BMP180;48128;54.242;10.280;2022-09-01T04:40:51;102088.00;;;8.90
25514;BMP180;48128;54.242;10.280;2022-09-01T04:43:18;102076.00;;;8.90
25514;BMP180;48128;54.242;10.280;2022-09-01T04:45:45;102088.00;;;8.90
25514;BMP180;48128;54.242;10.280;2022-09-01T04:48:12;102082.00;;;8.90
25514;BMP180;48128;54.242;10.280;2022-09-01T04:50:39;102089.00;;;8.90
25514;BMP180;48128;54.242;10.280;2022-09-01T04:53:06;102084.00;;;8.90
25514;BMP180;48128;54.242;10.280;2022-09-01T04:55:40;102082.00;;;8.90
25514;BMP180;48128;54.242;10.280;2022-09-01T04:58:16;102092.00;;;8.90
25514;BMP180;48128;54.242;10.280;2022-09-01T05:00:46;102085.00;;;8.90
25514;BMP180;48128;54.242;10.280;2022-09-01T05:03:21;102082.00;;;8.90
25514;BMP180;48128;54.242;10.280;2022-09-01T05:05:50;102077.00;;;9.00
25514;BMP180;48128;54.242;10.280;2022-09-01T05:08:20;102083.00;;;9.00
25514;BMP180;48128;54.242;10.280;2022-09-01T05:10:51;102077.00;;;9.00
25514;BMP180;48128;54.242;10.280;2022-09-01T05:13:21;102075.00;;;9.00
25514;BMP180;48128;54.242;10.280;2022-09-01T05:16:02;102081.00;;;9.00
25514;BMP180;48128;54.242;10.280;2022-09-01T05:18:30;102083.00;;;9.00
25514;BMP180;48128;54.242;10.280;2022-09-01T05:20:57;102078.00;;;9.00
25514;BMP180;48128;54.242;10.280;2022-09-01T05:23:24;102069.00;;;9.00
25514;BMP180;48128;54.242;10.280;2022-09-01T05:25:52;102079.00;;;9.10
25514;BMP180;48128;54.242;10.280;2022-09-01T05:28:21;102069.00;;;9.10
25514;BMP180;48128;54.242;10.280;2022-09-01T05:30:51;102071.00;;;9.10
25514;BMP180;48128;54.242;10.280;2022-09-01T05:33:20;102076.00;;;9.10
25514;BMP180;48128;54.242;10.280;2022-09-01T05:35:53;102075.00;;;9.20
25514;BMP180;48128;54.242;10.280;2022-09-01T05:38:21;102082.00;;;9.20
25514;BMP180;48128;54.242;10.280;2022-09-01T05:41:00;102087.00;;;9.30
25514;BMP180;48128;54.242;10.280;2022-09-01T05:43:34;102081.00;;;9.30
25514;BMP180;48128;54.242;10.280;2022-09-01T05:46:05;102076.00;;;9.40
25514;BMP180;48128;54.242;10.280;2022-09-01T05:48:33;102067.00;;;9.40
25514;BMP180;48128;54.242;10.280;2022-09-01T05:51:07;102072.00;;;9.50
25514;BMP180;48128;54.242;10.280;2022-09-01T05:53:55;102071.00;;;9.50
25514;BMP180;48128;54.242;10.280;2022-09-01T05:56:25;102079.00;;;9.60
25514;BMP180;48128;54.242;10.280;2022-09-01T05:58:53;102073.00;;;9.60
25514;BMP180;48128;54.242;10.280;2022-09-01T06:01:41;102069.00;;;9.70
25514;BMP180;48128;54.242;10.280;2022-09-01T06:04:15;102074.00;;;9.80
25514;BMP180;48128;54.242;10.280;2022-09-01T06:06:43;102082.00;;;9.90
25514;BMP180;48128;54.242;10.280;2022-09-01T06:09:32;102068.00;;;9.90
25514;BMP180;48128;54.242;10.280;2022-09-01T06:11:59;102071.00;;;10.00
25514;BMP180;48128;54.242;10.280;2022-09-01T06:14:28;102068.00;;;10.10
25514;BMP180;48128;54.242;10.280;2022-09-01T06:16:55;102059.00;;;10.20
25514;BMP180;48128;54.242;10.280;2022-09-01T06:19:22;102063.00;;;10.30
25514;BMP180;48128;54.242;10.280;2022-09-01T06:21:49;102058.00;;;10.40
25514;BMP180;48128;54.242;10.280;2022-09-01T06:24:29;102071.00;;;10.50
25514;BMP180;48128;54.242;10.280;2022-09-01T06:26:56;102068.00;;;10.60
25514;BMP180;48128;54.242;10.280;2022-09-01T06:29:23;102069.00;;;10.70
25514;BMP180;48128;54.242;10.280;2022-09-01T06:31:50;102070.00;;;10.90
25514;BMP180;48128;54.242;10.280;2022-09-01T06:34:19;102068.00;;;11.00
25514;BMP180;48128;54.242;10.280;2022-09-01T06:36:46;102079.00;;;11.20
25514;BMP180;48128;54.242;10.280;2022-09-01T06:39:15;102074.00;;;11.30
25514;BMP180;48128;54.242;10.280;2022-09-01T06:41:47;102080.00;;;11.50
25514;BMP180;48128;54.242;10.280;2022-09-01T06:44:15;102082.00;;;11.70
25514;BMP180;48128;54.242;10.280;2022-09-01T06:46:51;102072.00;;;11.80
25514;BMP180;48128;54.242;10.280;2022-09-01T06:49:19;102085.00;;;12.00
25514;BMP180;48128;54.242;10.280;2022-09-01T06:52:00;102082.00;;;12.10
25514;BMP180;48128;54.242;10.280;2022-09-01T06:54:29;102072.00;;;12.20
25514;BMP180;48128;54.242;10.280;2022-09-01T06:57:02;102077.00;;;12.40
25514;BMP180;48128;54.242;10.280;2022-09-01T06:59:49;102083.00;;;12.50
25514;BMP180;48128;54.242;10.280;2022-09-01T07:02:19;102083.00;;;12.70
25514;BMP180;48128;54.242;10.280;2022-09-01T07:04:52;102073.00;;;12.80
25514;BMP180;48128;54.242;10.280;2022-09-01T07:07:19;102078.00;;;13.00
25514;BMP180;48128;54.242;10.280;2022-09-01T07:10:08;102082.00;;;13.20
25514;BMP180;48128;54.242;10.280;2022-09-01T07:12:55;102075.00;;;13.40
25514;BMP180;48128;54.242;10.280;2022-09-01T07:15:36;102074.00;;;13.60
25514;BMP180;48128;54.242;10.280;2022-09-01T07:18:24;102083.00;;;13.60
25514;BMP180;48128;54.242;10.280;2022-09-01T07:21:12;102080.00;;;13.70
25514;BMP180;48128;54.242;10.280;2022-09-01T07:23:59;102080.00;;;13.90
25514;BMP180;48128;54.242;10.280;2022-09-01T07:26:37;102080.00;;;14.00
25514;BMP180;48128;54.242;10.280;2022-09-01T07:29:12;102087.00;;;14.00
25514;BMP180;48128;54.242;10.280;2022-09-01T07:31:41;102083.00;;;14.10
25514;BMP180;48128;54.242;10.280;2022-09-01T07:34:30;102074.00;;;14.20
25514;BMP180;48128;54.242;10.280;2022-09-01T07:37:05;102081.00;;;14.30
25514;BMP180;48128;54.242;10.280;2022-09-01T07:39:52;102078.00;;;14.50
25514;BMP180;48128;54.242;10.280;2022-09-01T07:42:21;102083.00;;;14.60
25514;BMP180;48128;54.242;10.280;2022-09-01T07:45:10;102099.00;;;15.00
25514;BMP180;48128;54.242;10.280;2022-09-01T07:47:55;102109.00;;;15.40
25514;BMP180;48128;54.242;10.280;2022-09-01T07:50:22;102155.00;;;15.80
25514;BMP180;48128;54.242;10.280;2022-09-01T07:53:06;102208.00;;;16.10
25514;BMP180;48128;54.242;10.280;2022-09-01T07:55:41;102209.00;;;16.20
25514;BMP180;48128;54.242;10.280;2022-09-01T07:58:11;102218.00;;;16.30
25514;BMP180;48128;54.242;10.280;2022-09-01T08:00:39;102227.00;;;16.40
25514;BMP180;48128;54.242;10.280;2022-09-01T08:03:06;102239.00;;;16.60
25514;BMP180;48128;54.242;10.280;2022-09-01T08:05:33;102252.00;;;16.80
25514;BMP180;48128;54.242;10.280;2022-09-01T08:08:04;102223.00;;;17.00
25514;BMP180;48128;54.242;10.280;2022-09-01T08:10:44;102210.00;;;17.10
25514;BMP180;48128;54.242;10.280;2022-09-01T08:13:15;102221.00;;;17.10
25514;BMP180;48128;54.242;10.280;2022-09-01T08:15:45;102242.00;;;17.10
25514;BMP180;48128;54.242;10.280;2022-09-01T08:18:32;102213.00;;;17.20
25514;BMP180;48128;54.242;10.280;2022-09-01T08:21:18;102251.00;;;17.30
25514;BMP180;48128;54.242;10.280;2022-09-01T08:23:52;102243.00;;;17.50
25514;BMP180;48128;54.242;10.280;2022-09-01T08:26:21;102288.00;;;17.70
25514;BMP180;48128;54.242;10.280;2022-09-01T08:28:50;102331.00;;;17.90
25514;BMP180;48128;54.242;10.280;2022-09-01T08:31:22;102284.00;;;18.10
25514;BMP180;48128;54.242;10.280;2022-09-01T08:34:06;102310.00;;;18.30
25514;BMP180;48128;54.242;10.280;2022-09-01T08:36:37;102286.00;;;18.30
25514;BMP180;48128;54.242;10.280;2022-09-01T08:39:07;102250.00;;;18.50
25514;BMP180;48128;54.242;10.280;2022-09-01T08:41:48;102272.00;;;18.60
25514;BMP180;48128;54.242;10.280;2022-09-01T08:44:36;102257.00;;;18.90
25514;BMP180;48128;54.242;10.280;2022-09-01T08:47:11;102296.00;;;19.00
25514;BMP180;48128;54.242;10.280;2022-09-01T08:49:41;102307.00;;;19.00
25514;BMP180;48128;54.242;10.280;2022-09-01T08:52:33;102305.00;;;19.00
25514;BMP180;48128;54.242;10.280;2022-09-01T08:57:44;102289.00;;;19.00
25514;BMP180;48128;54.242;10.280;2022-09-01T09:00:14;102324.00;;;19.20
25514;BMP180;48128;54.242;10.280;2022-09-01T09:02:52;102340.00;;;19.40
25514;BMP180;48128;54.242;10.280;2022-09-01T09:10:47;102305.00;;;18.90
25514;BMP180;48128;54.242;10.280;2022-09-01T09:13:23;102300.00;;;18.70
25514;BMP180;48128;54.242;10.280;2022-09-01T09:16:09;102298.00;;;18.80
25514;BMP180;48128;54.242;10.280;2022-09-01T09:24:31;102314.00;;;19.40
25514;BMP180;48128;54.242;10.280;2022-09-01T09:27:17;102329.00;;;19.60
25514;BMP180;48128;54.242;10.280;2022-09-01T09:29:49;102317.00;;;19.70
25514;BMP180;48128;54.242;10.280;2022-09-01T09:32:18;102280.00;;;20.00
25514;BMP180;48128;54.242;10.280;2022-09-01T09:34:50;102302.00;;;20.20
25514;BMP180;48128;54.242;10.280;2022-09-01T09:40:13;102342.00;;;20.50
25514;BMP180;48128;54.242;10.280;2022-09-01T09:48:04;102375.00;;;20.50
25514;BMP180;48128;54.242;10.280;2022-09-01T09:50:39;102338.00;;;20.50
25514;BMP180;48128;54.242;10.280;2022-09-01T09:53:29;102319.00;;;20.60
25514;BMP180;48128;54.242;10.280;2022-09-01T09:56:19;102339.00;;;20.60
25514;BMP180;48128;54.242;10.280;2022-09-01T09:58:58;102342.00;;;20.60
25514;BMP180;48128;54.242;10.280;2022-09-01T10:01:29;102346.00;;;20.70
25514;BMP180;48128;54.242;10.280;2022-09-01T10:04:04;102371.00;;;20.50
25514;BMP180;48128;54.242;10.280;2022-09-01T10:06:54;102348.00;;;20.30
25514;BMP180;48128;54.242;10.280;2022-09-01T10:11:55;102343.00;;;20.40
25514;BMP180;48128;54.242;10.280;2022-09-01T10:14:32;102329.00;;;20.50
25514;BMP180;48128;54.242;10.280;2022-09-01T10:17:30;102341.00;;;20.60
25514;BMP180;48128;54.242;10.280;2022-09-01T10:20:14;102342.00;;;20.70
25514;BMP180;48128;54.242;10.280;2022-09-01T10:22:43;102349.00;;;20.60
25514;BMP180;48128;54.242;10.280;2022-09-01T10:25:25;102350.00;;;20.60
25514;BMP180;48128;54.242;10.280;2022-09-01T10:28:07;102356.00;;;20.60
25514;BMP180;48128;54.242;10.280;2022-09-01T10:30:39;102346.00;;;20.70
25514;BMP180;48128;54.242;10.280;2022-09-01T10:33:14;102348.00;;;20.90
25514;BMP180;48128;54.242;10.280;2022-09-01T10:35:49;102343.00;;;21.00
25514;BMP180;48128;54.242;10.280;2022-09-01T10:38:27;102358.00;;;21.10
25514;BMP180;48128;54.242;10.280;2022-09-01T10:41:00;102338.00;;;21.20
25514;BMP180;48128;54.242;10.280;2022-09-01T10:43:52;102336.00;;;21.40
25514;BMP180;48128;54.242;10.280;2022-09-01T10:55:37;102353.00;;;21.20
25514;BMP180;48128;54.242;10.280;2022-09-01T11:04:20;102350.00;;;21.10
25514;BMP180;48128;54.242;10.280;2022-09-01T11:09:42;102325.00;;;20.60
25514;BMP180;48128;54.242;10.280;2022-09-01T11:12:23;102319.00;;;20.70
25514;BMP180;48128;54.242;10.280;2022-09-01T11:15:04;102347.00;;;20.90
25514;BMP180;48128;54.242;10.280;2022-09-01T11:17:37;102332.00;;;21.00
25514;BMP180;48128;54.242;10.280;2022-09-01T11:22:43;102337.00;;;21.10
25514;BMP180;48128;54.242;10.280;2022-09-01T11:25:47;102328.00;;;21.10
25514;BMP180;48128;54.242;10.280;2022-09-01T11:28:36;102351.00;;;21.10
25514;BMP180;48128;54.242;10.280;2022-09-01T11:41:43;102337.00;;;21.10
25514;BMP180;48128;54.242;10.280;2022-09-01T11:44:41;102333.00;;;21.20
25514;BMP180;48128;54.242;10.280;2022-09-01T11:47:12;102336.00;;;21.20
25514;BMP180;48128;54.242;10.280;2022-09-01T11:52:37;102343.00;;;21.10
25514;BMP180;48128;54.242;10.280;2022-09-01T11:55:05;102308.00;;;20.90
25514;BMP180;48128;54.242;10.280;2022-09-01T11:57:34;102322.00;;;20.90
25514;BMP180;48128;54.242;10.280;2022-09-01T12:00:05;102320.00;;;20.90
25514;BMP180;48128;54.242;10.280;2022-09-01T12:02:34;102327.00;;;21.00
25514;BMP180;48128;54.242;10.280;2022-09-01T12:05:22;102327.00;;;21.10
25514;BMP180;48128;54.242;10.280;2022-09-01T12:07:50;102318.00;;;21.10
25514;BMP180;48128;54.242;10.280;2022-09-01T12:13:05;102313.00;;;21.00
25514;BMP180;48128;54.242;10.280;2022-09-01T12:15:34;102311.00;;;21.00
25514;BMP180;48128;54.242;10.280;2022-09-01T12:18:18;102315.00;;;21.00
25514;BMP180;48128;54.242;10.280;2022-09-01T12:20:47;102331.00;;;21.00
25514;BMP180;48128;54.242;10.280;2022-09-01T12:26:04;102318.00;;;21.00
25514;BMP180;48128;54.242;10.280;2022-09-01T12:28:32;102308.00;;;21.10
25514;BMP180;48128;54.242;10.280;2022-09-01T12:31:02;102300.00;;;21.00
25514;BMP180;48128;54.242;10.280;2022-09-01T12:33:33;102304.00;;;21.10
25514;BMP180;48128;54.242;10.280;2022-09-01T12:38:51;102295.00;;;21.10
25514;BMP180;48128;54.242;10.280;2022-09-01T12:41:32;102319.00;;;21.10
25514;BMP180;48128;54.242;10.280;2022-09-01T12:44:30;102295.00;;;21.00
25514;BMP180;48128;54.242;10.280;2022-09-01T12:47:02;102292.00;;;21.10
25514;BMP180;48128;54.242;10.280;2022-09-01T12:49:40;102292.00;;;21.00
25514;BMP180;48128;54.242;10.280;2022-09-01T12:52:21;102317.00;;;20.90
25514;BMP180;48128;54.242;10.280;2022-09-01T13:00:31;102297.00;;;21.00
25514;BMP180;48128;54.242;10.280;2022-09-01T13:03:12;102295.00;;;20.90
25514;BMP180;48128;54.242;10.280;2022-09-01T13:06:11;102287.00;;;20.80
25514;BMP180;48128;54.242;10.280;2022-09-01T13:08:37;102300.00;;;20.70
25514;BMP180;48128;54.242;10.280;2022-09-01T13:11:17;102279.00;;;20.70
25514;BMP180;48128;54.242;10.280;2022-09-01T13:13:47;102295.00;;;20.70
25514;BMP180;48128;54.242;10.280;2022-09-01T13:16:15;102282.00;;;20.70
25514;BMP180;48128;54.242;10.280;2022-09-01T13:18:45;102282.00;;;20.60
25514;BMP180;48128;54.242;10.280;2022-09-01T13:21:35;102266.00;;;20.60
25514;BMP180;48128;54.242;10.280;2022-09-01T13:24:04;102289.00;;;20.70
25514;BMP180;48128;54.242;10.280;2022-09-01T13:26:33;102276.00;;;20.70
25514;BMP180;48128;54.242;10.280;2022-09-01T13:29:00;102276.00;;;20.70
25514;BMP180;48128;54.242;10.280;2022-09-01T13:31:27;102282.00;;;20.70
25514;BMP180;48128;54.242;10.280;2022-09-01T13:33:57;102291.00;;;20.70
25514;BMP180;48128;54.242;10.280;2022-09-01T13:36:43;102272.00;;;20.70
25514;BMP180;48128;54.242;10.280;2022-09-01T13:39:17;102287.00;;;20.70
25514;BMP180;48128;54.242;10.280;2022-09-01T13:41:46;102271.00;;;20.70
25514;BMP180;48128;54.242;10.280;2022-09-01T13:44:14;102276.00;;;20.70
25514;BMP180;48128;54.242;10.280;2022-09-01T13:46:44;102276.00;;;20.60
25514;BMP180;48128;54.242;10.280;2022-09-01T13:49:31;102283.00;;;20.50
25514;BMP180;48128;54.242;10.280;2022-09-01T13:52:18;102269.00;;;20.50
25514;BMP180;48128;54.242;10.280;2022-09-01T13:54:47;102256.00;;;20.50
25514;BMP180;48128;54.242;10.280;2022-09-01T13:57:14;102252.00;;;20.50
25514;BMP180;48128;54.242;10.280;2022-09-01T13:59:51;102259.00;;;20.50
25514;BMP180;48128;54.242;10.280;2022-09-01T14:02:19;102274.00;;;20.60
25514;BMP180;48128;54.242;10.280;2022-09-01T14:04:46;102255.00;;;20.60
25514;BMP180;48128;54.242;10.280;2022-09-01T14:07:20;102259.00;;;20.60
25514;BMP180;48128;54.242;10.280;2022-09-01T14:09:50;102272.00;;;20.60
25514;BMP180;48128;54.242;10.280;2022-09-01T14:12:17;102249.00;;;20.50
25514;BMP180;48128;54.242;10.280;2022-09-01T14:14:44;102270.00;;;20.50
25514;BMP180;48128;54.242;10.280;2022-09-01T14:17:32;102254.00;;;20.30
25514;BMP180;48128;54.242;10.280;2022-09-01T14:19:59;102251.00;;;20.30
25514;BMP180;48128;54.242;10.280;2022-09-01T14:22:26;102247.00;;;20.20
25514;BMP180;48128;54.242;10.280;2022-09-01T14:24:53;102222.00;;;20.20
25514;BMP180;48128;54.242;10.280;2022-09-01T14:27:20;102238.00;;;20.20
25514;BMP180;48128;54.242;10.280;2022-09-01T14:29:48;102230.00;;;20.20
25514;BMP180;48128;54.242;10.280;2022-09-01T14:32:20;102247.00;;;20.10
25514;BMP180;48128;54.242;10.280;2022-09-01T14:34:53;102260.00;;;20.10
25514;BMP180;48128;54.242;10.280;2022-09-01T14:37:20;102236.00;;;20.10
25514;BMP180;48128;54.242;10.280;2022-09-01T14:39:57;102243.00;;;20.10
25514;BMP180;48128;54.242;10.280;2022-09-01T14:42:37;102226.00;;;20.00
25514;BMP180;48128;54.242;10.280;2022-09-01T14:45:20;102223.00;;;20.00
25514;BMP180;48128;54.242;10.280;2022-09-01T14:48:18;102212.00;;;20.00
25514;BMP180;48128;54.242;10.280;2022-09-01T14:50:49;102215.00;;;19.90
25514;BMP180;48128;54.242;10.280;2022-09-01T14:53:19;102215.00;;;19.90
25514;BMP180;48128;54.242;10.280;2022-09-01T14:56:01;102211.00;;;19.80
25514;BMP180;48128;54.242;10.280;2022-09-01T14:58:52;102221.00;;;19.80
25514;BMP180;48128;54.242;10.280;2022-09-01T15:01:24;102196.00;;;19.90
25514;BMP180;48128;54.242;10.280;2022-09-01T15:04:01;102180.00;;;19.90
25514;BMP180;48128;54.242;10.280;2022-09-01T15:06:28;102181.00;;;19.90
25514;BMP180;48128;54.242;10.280;2022-09-01T15:08:55;102183.00;;;19.90
25514;BMP180;48128;54.242;10.280;2022-09-01T15:11:22;102166.00;;;19.90
25514;BMP180;48128;54.242;10.280;2022-09-01T15:13:49;102177.00;;;19.90
25514;BMP180;48128;54.242;10.280;2022-09-01T15:16:21;102194.00;;;19.80
25514;BMP180;48128;54.242;10.280;2022-09-01T15:18:49;102184.00;;;19.70
25514;BMP180;48128;54.242;10.280;2022-09-01T15:21:29;102178.00;;;19.70
25514;BMP180;48128;54.242;10.280;2022-09-01T15:24:01;102167.00;;;19.60
25514;BMP180;48128;54.242;10.280;2022-09-01T15:26:28;102162.00;;;19.60
25514;BMP180;48128;54.242;10.280;2022-09-01T15:28:55;102150.00;;;19.60
25514;BMP180;48128;54.242;10.280;2022-09-01T15:31:23;102143.00;;;19.60
25514;BMP180;48128;54.242;10.280;2022-09-01T15:34:12;102149.00;;;19.50
25514;BMP180;48128;54.242;10.280;2022-09-01T15:36:44;102150.00;;;19.40
25514;BMP180;48128;54.242;10.280;2022-09-01T15:39:11;102158.00;;;19.40
25514;BMP180;48128;54.242;10.280;2022-09-01T15:41:38;102161.00;;;19.30
25514;BMP180;48128;54.242;10.280;2022-09-01T15:44:08;102139.00;;;19.30